Time;durP1;ratioP1;P1;durP2;ratioP2;P2;SDS_P1;SDS_P2;PMS_P1;PMS_P2;Temp;Humidity;BMP_temperature;BMP_pressure;BME280_temperature;BME280_humidity;BME280_pressure;Samples;Min_cycle;Max_cycle;Signal;HPM_P1;HPM_P2
2021/07/25 00:00:46;;;;;;;20.05;10.70;;;;;;;18.81;98.20;98830.77;1645099;85;21086;-60
2021/07/25 00:03:14;;;;;;;22.60;10.72;;;;;;;18.79;98.66;98823.54;1629051;85;21566;-59
2021/07/25 00:05:42;;;;;;;20.27;11.15;;;;;;;18.79;98.96;98831.55;1637488;86;21011;-55
2021/07/25 00:08:13;;;;;;;19.48;10.18;;;;;;;18.78;99.22;98830.75;1613557;87;21082;-59
2021/07/25 00:10:47;;;;;;;24.43;10.78;;;;;;;18.75;99.29;98831.28;1628049;85;21601;-56
2021/07/25 00:13:16;;;;;;;22.27;11.30;;;;;;;18.72;98.93;98830.46;1622480;87;21047;-62
2021/07/25 00:15:44;;;;;;;20.02;10.50;;;;;;;18.67;99.18;98830.94;1628453;86;21158;-59
2021/07/25 00:18:11;;;;;;;21.02;10.03;;;;;;;18.66;99.37;98833.34;1619990;86;22345;-60
2021/07/25 00:20:39;;;;;;;21.10;10.13;;;;;;;18.63;99.65;98827.98;1619988;86;21115;-60
2021/07/25 00:23:07;;;;;;;18.67;10.28;;;;;;;18.60;99.83;98831.19;1619057;85;21150;-59
2021/07/25 00:25:35;;;;;;;20.23;10.03;;;;;;;18.58;100.00;98832.78;1622229;87;21071;-58
2021/07/25 00:28:05;;;;;;;20.55;9.93;;;;;;;18.57;100.00;98827.15;1610880;87;21304;-61
2021/07/25 00:30:32;;;;;;;19.02;10.18;;;;;;;18.56;100.00;98825.55;1589760;87;21069;-59
2021/07/25 00:33:00;;;;;;;20.48;10.85;;;;;;;18.56;100.00;98822.08;1631104;87;21118;-61
2021/07/25 00:35:28;;;;;;;21.77;10.78;;;;;;;18.55;100.00;98822.61;1629209;87;21640;-59
2021/07/25 00:37:56;;;;;;;16.85;10.15;;;;;;;18.55;100.00;98819.14;1630700;86;21095;-59
2021/07/25 00:40:39;;;;;;;18.95;10.28;;;;;;;18.52;99.70;98820.48;1633865;86;21550;-59
2021/07/25 00:43:06;;;;;;;21.60;10.75;;;;;;;18.52;99.90;98817.81;1635915;86;21075;-58
2021/07/25 00:45:34;;;;;;;18.55;10.75;;;;;;;18.53;99.48;98815.94;1624134;85;21549;-58
2021/07/25 00:48:03;;;;;;;19.85;10.30;;;;;;;18.56;98.97;98815.41;1628914;85;21122;-58
2021/07/25 00:50:31;;;;;;;22.67;10.53;;;;;;;18.58;98.49;98814.63;1580762;87;21571;-60
2021/07/25 00:52:59;;;;;;;15.65;9.63;;;;;;;18.60;98.09;98817.84;1634419;87;21512;-60
2021/07/25 00:55:27;;;;;;;20.08;10.00;;;;;;;18.62;97.67;98822.38;1622083;86;21127;-60
2021/07/25 00:57:55;;;;;;;19.30;10.60;;;;;;;18.65;97.02;98807.72;1619583;86;21107;-58
2021/07/25 01:00:23;;;;;;;22.70;10.85;;;;;;;18.66;96.12;98813.32;1620352;86;21087;-61
2021/07/25 01:03:08;;;;;;;24.32;10.23;;;;;;;18.66;95.31;98810.12;1626814;87;21143;-57
2021/07/25 01:05:45;;;;;;;17.85;10.20;;;;;;;18.65;94.79;98813.86;1613687;87;21118;-58
2021/07/25 01:08:23;;;;;;;18.98;9.98;;;;;;;18.65;94.18;98821.06;1630815;87;21072;-58
2021/07/25 01:10:53;;;;;;;20.12;10.58;;;;;;;18.66;93.53;98822.13;1626638;87;21553;-59
2021/07/25 01:13:26;;;;;;;19.65;10.28;;;;;;;18.66;93.48;98815.99;1622360;87;21092;-58
2021/07/25 01:15:54;;;;;;;21.15;10.18;;;;;;;18.66;93.25;98824.00;1614208;86;21028;-57
2021/07/25 01:18:22;;;;;;;22.42;11.10;;;;;;;18.64;92.89;98820.77;1613964;87;21570;-58
2021/07/25 01:20:51;;;;;;;21.25;10.75;;;;;;;18.63;93.02;98817.83;1625527;86;21118;-61
2021/07/25 01:23:19;;;;;;;21.70;11.40;;;;;;;18.62;92.90;98818.37;1622232;85;21575;-58
2021/07/25 01:25:46;;;;;;;20.95;11.03;;;;;;;18.60;92.88;98823.70;1628718;86;21170;-59
2021/07/25 01:28:28;;;;;;;24.60;11.83;;;;;;;18.57;93.00;98823.15;1614211;87;21574;-62
2021/07/25 01:30:58;;;;;;;20.82;10.53;;;;;;;18.54;93.37;98825.55;1629108;87;21095;-60
2021/07/25 01:33:29;;;;;;;21.57;11.63;;;;;;;18.52;93.76;98821.81;1633915;86;21522;-59
2021/07/25 01:36:00;;;;;;;21.35;10.53;;;;;;;18.51;94.00;98823.39;1625989;85;21074;-58
2021/07/25 01:38:28;;;;;;;18.12;10.55;;;;;;;18.49;93.98;98828.20;1621363;87;21019;-60
2021/07/25 01:41:10;;;;;;;19.37;10.20;;;;;;;18.48;94.21;98834.60;1612376;87;21114;-59
2021/07/25 01:43:47;;;;;;;21.00;10.45;;;;;;;18.47;94.39;98829.00;1630365;86;21062;-59
2021/07/25 01:46:14;;;;;;;19.02;10.20;;;;;;;18.43;94.48;98827.90;1633841;85;21083;-57
2021/07/25 01:48:42;;;;;;;20.37;10.78;;;;;;;18.38;94.61;98825.20;1636727;87;21052;-59
2021/07/25 01:51:14;;;;;;;21.40;10.60;;;;;;;18.33;94.90;98825.97;1637220;86;21138;-60
2021/07/25 01:53:42;;;;;;;18.98;10.13;;;;;;;18.27;95.10;98821.67;1630095;86;21071;-60
2021/07/25 01:56:10;;;;;;;21.00;10.60;;;;;;;18.21;95.58;98828.84;1639096;85;21028;-58
2021/07/25 01:58:38;;;;;;;18.70;10.35;;;;;;;18.16;96.09;98830.14;1623670;87;21091;-57
2021/07/25 02:01:06;;;;;;;19.07;10.45;;;;;;;18.11;96.60;98830.11;1626250;87;21056;-58
2021/07/25 02:03:35;;;;;;;21.80;11.30;;;;;;;18.09;96.85;98837.57;1626358;87;21186;-58
2021/07/25 02:06:03;;;;;;;19.57;10.72;;;;;;;18.07;96.99;98836.23;1624981;87;21582;-57
2021/07/25 02:08:31;;;;;;;20.23;10.60;;;;;;;18.02;97.22;98835.66;1625847;87;21107;-61
2021/07/25 02:10:59;;;;;;;18.05;9.98;;;;;;;17.99;97.09;98829.49;1620473;87;21091;-57
2021/07/25 02:13:28;;;;;;;20.60;10.70;;;;;;;17.96;97.26;98838.82;1621734;86;21531;-58
2021/07/25 02:15:56;;;;;;;20.77;11.00;;;;;;;17.93;97.27;98837.98;1635288;86;21073;-58
2021/07/25 02:18:23;;;;;;;19.85;10.48;;;;;;;17.92;97.23;98837.72;1623123;87;21128;-58
2021/07/25 02:20:53;;;;;;;21.93;11.15;;;;;;;17.90;97.33;98834.52;1636959;86;21168;-59
2021/07/25 02:23:21;;;;;;;21.20;11.38;;;;;;;17.89;97.46;98832.91;1624344;85;21561;-60
2021/07/25 02:25:49;;;;;;;22.10;10.58;;;;;;;17.86;97.72;98833.41;1631693;85;21046;-61
2021/07/25 02:28:16;;;;;;;21.12;10.43;;;;;;;17.86;98.01;98835.27;1629620;86;21129;-58
2021/07/25 02:30:44;;;;;;;19.95;10.88;;;;;;;17.84;98.17;98827.54;1630667;86;21540;-57
2021/07/25 02:33:12;;;;;;;22.62;10.35;;;;;;;17.85;98.05;98832.34;1637521;87;21042;-57
2021/07/25 02:35:39;;;;;;;21.62;11.68;;;;;;;17.85;98.00;98841.67;1636600;86;21089;-59
2021/07/25 02:38:07;;;;;;;21.35;11.22;;;;;;;17.83;98.17;98839.77;1631994;86;21116;-55
2021/07/25 02:40:35;;;;;;;18.27;10.95;;;;;;;17.82;98.55;98838.97;1621038;86;21100;-59
2021/07/25 02:43:03;;;;;;;20.12;11.20;;;;;;;17.80;99.08;98841.09;1624384;86;21167;-59
2021/07/25 02:45:31;;;;;;;22.07;10.43;;;;;;;17.80;99.65;98838.97;1643515;86;21043;-60
2021/07/25 02:47:59;;;;;;;22.80;11.05;;;;;;;17.83;99.93;98851.23;1627812;86;21557;-59
2021/07/25 02:50:26;;;;;;;22.30;11.05;;;;;;;17.87;99.94;98851.55;1620947;86;21072;-54
2021/07/25 02:52:55;;;;;;;21.50;10.48;;;;;;;17.90;100.00;98853.72;1654842;85;21077;-58
2021/07/25 02:55:23;;;;;;;22.98;9.88;;;;;;;17.93;100.00;98853.98;1627796;86;21090;-59
2021/07/25 02:57:52;;;;;;;21.45;10.08;;;;;;;17.95;100.00;98856.39;1615794;87;21586;-58
2021/07/25 03:00:21;;;;;;;16.25;9.25;;;;;;;17.97;100.00;98856.96;1630875;87;21087;-57
2021/07/25 03:02:49;;;;;;;20.62;9.75;;;;;;;17.97;100.00;98861.77;1636689;86;21011;-56
2021/07/25 03:05:16;;;;;;;20.12;10.03;;;;;;;17.97;100.00;98860.96;1619440;87;21071;-56
2021/07/25 03:07:44;;;;;;;16.57;9.70;;;;;;;17.96;100.00;98865.49;1621822;87;21866;-57
2021/07/25 03:10:12;;;;;;;19.07;9.70;;;;;;;18.00;100.00;98869.77;1614295;87;21027;-57
2021/07/25 03:12:40;;;;;;;20.17;10.48;;;;;;;18.02;100.00;98873.80;1618457;86;21593;-58
2021/07/25 03:15:10;;;;;;;16.25;9.30;;;;;;;18.04;100.00;98873.54;1614177;86;21070;-57
2021/07/25 03:17:38;;;;;;;19.32;10.28;;;;;;;18.03;100.00;98871.94;1612643;87;21107;-59
2021/07/25 03:20:07;;;;;;;20.60;10.35;;;;;;;18.02;100.00;98877.80;1633841;86;21521;-58
2021/07/25 03:22:35;;;;;;;21.00;9.80;;;;;;;18.04;100.00;98872.20;1622262;86;21058;-59
2021/07/25 03:25:04;;;;;;;18.92;9.78;;;;;;;18.10;100.00;98867.18;1626381;86;21147;-57
2021/07/25 03:27:32;;;;;;;21.20;10.55;;;;;;;18.15;100.00;98866.42;1642361;86;21106;-60
2021/07/25 03:30:00;;;;;;;21.70;10.85;;;;;;;18.19;100.00;98872.86;1609538;87;21103;-60
2021/07/25 03:32:32;;;;;;;23.47;10.95;;;;;;;18.28;100.00;98872.63;1619036;87;21559;-59
2021/07/25 03:35:00;;;;;;;26.12;10.85;;;;;;;18.38;100.00;98864.70;1605735;87;21080;-60
2021/07/25 03:37:28;;;;;;;20.17;10.90;;;;;;;18.49;100.00;98869.03;1631297;85;21185;-59
2021/07/25 03:39:59;;;;;;;22.95;10.72;;;;;;;18.54;99.75;98866.92;1629492;87;21106;-58
2021/07/25 03:42:26;;;;;;;;;;;;;;;18.53;99.41;98876.80;1627675;85;21038;-59
2021/07/25 03:44:54;;;;;;;19.90;10.08;;;;;;;18.55;99.29;98877.88;1632136;86;20420;-58
2021/07/25 03:47:22;;;;;;;20.37;10.88;;;;;;;18.65;99.18;98879.27;1632267;86;21090;-58
2021/07/25 03:49:50;;;;;;;20.85;11.55;;;;;;;18.80;98.65;98878.55;1628031;87;21084;-57
2021/07/25 03:52:18;;;;;;;24.07;11.40;;;;;;;18.97;98.07;98881.82;1631683;87;21091;-61
2021/07/25 03:54:46;;;;;;;22.20;11.33;;;;;;;19.13;97.21;98884.02;1624313;87;21064;-61
2021/07/25 03:57:14;;;;;;;21.97;12.00;;;;;;;19.28;96.31;98887.28;1620498;87;21567;-59
2021/07/25 03:59:43;;;;;;;20.43;10.58;;;;;;;19.40;95.57;98886.50;1630722;87;21570;-57
2021/07/25 04:02:11;;;;;;;20.25;11.12;;;;;;;19.50;94.98;98883.05;1623136;87;21150;-60
2021/07/25 04:04:39;;;;;;;21.85;12.43;;;;;;;19.61;94.66;98891.36;1626665;87;21131;-59
2021/07/25 04:07:07;;;;;;;23.65;12.40;;;;;;;19.66;93.89;98889.23;1624740;87;21079;-59
2021/07/25 04:09:34;;;;;;;23.95;12.10;;;;;;;19.67;93.54;98893.00;1629651;86;21066;-59
2021/07/25 04:12:03;;;;;;;22.40;11.80;;;;;;;19.73;92.99;98886.59;1635655;85;21610;-60
2021/07/25 04:14:31;;;;;;;21.30;11.40;;;;;;;19.80;91.91;98890.33;1640806;86;21074;-56
2021/07/25 04:16:59;;;;;;;23.77;11.15;;;;;;;19.86;90.66;98889.26;1636446;86;21075;-60
2021/07/25 04:19:29;;;;;;;19.80;9.75;;;;;;;19.91;90.27;98887.13;1626005;86;21082;-57
2021/07/25 04:21:58;;;;;;;21.82;10.18;;;;;;;19.98;89.57;98897.02;1625883;87;21123;-58
2021/07/25 04:24:26;;;;;;;18.35;10.40;;;;;;;20.05;88.24;98898.88;1617002;86;21063;-58
2021/07/25 04:26:55;;;;;;;20.62;10.13;;;;;;;20.09;87.39;98899.42;1618926;87;21119;-58
2021/07/25 04:29:23;;;;;;;21.80;10.48;;;;;;;20.09;87.35;98891.39;1632627;86;21065;-58
2021/07/25 04:31:52;;;;;;;20.97;10.20;;;;;;;20.15;87.45;98896.20;1610392;87;21122;-58
2021/07/25 04:34:20;;;;;;;20.37;10.08;;;;;;;20.25;87.07;98890.84;1619236;86;21081;-59
2021/07/25 04:36:50;;;;;;;21.95;9.85;;;;;;;20.36;86.72;98895.66;1616314;87;21028;-58
2021/07/25 04:39:19;;;;;;;19.40;10.40;;;;;;;20.45;86.12;98895.89;1622544;87;21011;-59
2021/07/25 04:41:55;;;;;;;17.62;10.05;;;;;;;20.53;85.27;98894.84;1624491;85;21084;-58
2021/07/25 04:44:45;;;;;;;19.12;9.45;;;;;;;20.59;84.55;98898.31;1618397;87;21126;-58
2021/07/25 04:47:17;;;;;;;19.23;10.25;;;;;;;20.63;84.50;98894.00;1611649;87;21070;-59
2021/07/25 04:49:56;;;;;;;19.80;9.98;;;;;;;20.68;84.06;98900.68;1627471;86;21142;-60
2021/07/25 04:52:24;;;;;;;21.07;10.53;;;;;;;20.75;84.02;98899.84;1622151;86;21158;-60
2021/07/25 04:54:52;;;;;;;18.82;10.10;;;;;;;20.85;83.84;98899.82;1630523;85;21185;-57
2021/07/25 04:57:21;;;;;;;15.38;9.28;;;;;;;20.92;83.74;98894.16;1610142;87;21067;-57
2021/07/25 04:59:51;;;;;;;19.23;10.05;;;;;;;21.02;83.28;98897.34;1570579;87;21036;-59
2021/07/25 05:02:23;;;;;;;25.77;10.50;;;;;;;21.12;82.59;98907.48;1631010;85;21550;-60
2021/07/25 05:04:50;;;;;;;19.25;9.90;;;;;;;21.26;81.04;98900.97;1632240;85;21575;-58
2021/07/25 05:07:18;;;;;;;18.40;9.60;;;;;;;21.36;80.38;98900.16;1633302;87;21071;-58
2021/07/25 05:09:47;;;;;;;19.82;9.30;;;;;;;21.53;79.57;98901.13;1631566;87;21162;-61
2021/07/25 05:12:23;;;;;;;16.23;9.38;;;;;;;21.72;78.82;98898.04;1624793;87;21103;-60
2021/07/25 05:15:04;;;;;;;16.02;8.85;;;;;;;21.89;78.05;98905.70;1632919;85;21220;-60
2021/07/25 05:18:04;;;;;;;17.15;9.43;;;;;;;22.08;76.74;98898.58;1625759;85;21584;-61
2021/07/25 05:20:45;;;;;;;16.87;9.18;;;;;;;22.29;75.92;98895.17;1641616;85;21027;-61
2021/07/25 05:23:25;;;;;;;21.27;9.10;;;;;;;22.44;74.71;98892.89;1626737;86;21111;-63
2021/07/25 05:25:54;;;;;;;17.45;9.53;;;;;;;22.60;74.19;98900.25;1631084;86;21532;-60
2021/07/25 05:28:23;;;;;;;19.57;9.95;;;;;;;22.83;72.83;98900.00;1639016;86;21554;-61
2021/07/25 05:30:53;;;;;;;19.32;9.80;;;;;;;23.00;71.49;98901.16;1622251;86;21523;-61
2021/07/25 05:33:21;;;;;;;17.33;9.10;;;;;;;23.17;71.14;98897.16;1634945;85;21107;-61
2021/07/25 05:35:49;;;;;;;14.13;8.90;;;;;;;23.37;69.53;98909.00;1629141;87;21084;-60
2021/07/25 05:38:17;;;;;;;15.93;9.13;;;;;;;23.69;68.35;98908.86;1629437;86;21108;-60
2021/07/25 05:40:45;;;;;;;16.15;9.28;;;;;;;24.05;66.98;98907.19;1631457;86;21097;-59
2021/07/25 05:43:13;;;;;;;14.78;8.55;;;;;;;24.39;65.22;98914.73;1627772;87;21624;-59
2021/07/25 05:45:41;;;;;;;16.45;8.48;;;;;;;24.64;64.24;98918.30;1621235;87;21122;-58
2021/07/25 05:48:09;;;;;;;17.27;8.73;;;;;;;24.79;62.94;98917.22;1617471;86;21119;-55
2021/07/25 05:50:36;;;;;;;17.80;8.98;;;;;;;24.95;61.99;98918.52;1637238;85;21460;-60
2021/07/25 05:53:04;;;;;;;15.45;8.73;;;;;;;25.13;60.60;98910.09;1623148;86;21083;-60
2021/07/25 05:55:33;;;;;;;14.73;8.20;;;;;;;25.35;59.27;98910.15;1636444;87;21091;-60
2021/07/25 05:58:02;;;;;;;15.78;8.85;;;;;;;25.60;58.10;98913.38;1618941;87;21113;-59
2021/07/25 06:00:30;;;;;;;15.25;8.00;;;;;;;25.92;57.45;98913.18;1627942;87;21081;-59
2021/07/25 06:03:02;;;;;;;15.90;7.55;;;;;;;26.29;55.21;98908.47;1626551;85;21110;-61
2021/07/25 06:05:33;;;;;;;18.37;8.38;;;;;;;26.57;52.63;98916.43;1625042;86;21087;-60
2021/07/25 06:08:02;;;;;;;14.45;8.25;;;;;;;26.81;52.47;98903.87;1623310;87;21128;-61
2021/07/25 06:10:30;;;;;;;15.90;8.40;;;;;;;27.04;52.99;98908.07;1630515;87;21066;-60
2021/07/25 06:13:00;;;;;;;14.83;7.83;;;;;;;27.40;51.99;98915.95;1627211;87;21150;-61
2021/07/25 06:15:29;;;;;;;14.35;7.85;;;;;;;27.67;51.07;98914.86;1613261;87;21661;-61
2021/07/25 06:17:57;;;;;;;15.08;8.30;;;;;;;27.94;50.46;98908.34;1618896;87;21132;-57
2021/07/25 06:20:25;;;;;;;14.38;7.95;;;;;;;28.17;50.23;98912.20;1647890;86;21069;-57
2021/07/25 06:22:53;;;;;;;16.50;8.25;;;;;;;28.54;49.23;98907.40;1648757;85;21172;-60
2021/07/25 06:25:25;;;;;;;13.43;7.55;;;;;;;28.94;47.77;98905.73;1651323;85;21096;-60
2021/07/25 06:27:54;;;;;;;12.58;7.85;;;;;;;29.23;46.44;98901.40;1654394;84;21135;-57
2021/07/25 06:30:23;;;;;;;13.65;8.33;;;;;;;29.50;46.40;98907.67;1641617;85;21556;-59
2021/07/25 06:33:03;;;;;;;16.73;7.45;;;;;;;29.74;45.55;98911.09;1644143;85;21049;-60
2021/07/25 06:35:38;;;;;;;11.68;7.20;;;;;;;30.01;45.21;98916.53;1620094;86;21116;-58
2021/07/25 06:38:12;;;;;;;13.78;7.47;;;;;;;30.17;44.39;98920.80;1642604;86;21054;-58
2021/07/25 06:40:46;;;;;;;13.15;7.83;;;;;;;30.25;44.28;98924.55;1637877;87;21086;-59
2021/07/25 06:43:15;;;;;;;14.13;7.95;;;;;;;30.26;43.90;98927.48;1640962;85;21135;-57
2021/07/25 06:45:44;;;;;;;13.75;7.87;;;;;;;30.35;44.05;98928.99;1649529;86;21537;-60
2021/07/25 06:48:30;;;;;;;17.40;8.08;;;;;;;30.71;43.18;98932.13;1612860;87;21178;-55
2021/07/25 06:50:59;;;;;;;12.40;6.78;;;;;;;31.11;42.47;98932.23;1645347;85;21066;-59
2021/07/25 06:53:29;;;;;;;13.10;6.50;;;;;;;31.52;40.96;98926.28;1628234;86;21190;-56
2021/07/25 06:55:59;;;;;;;15.58;6.67;;;;;;;31.75;39.76;98936.08;1632838;86;21198;-55
2021/07/25 06:58:27;;;;;;;11.25;6.53;;;;;;;31.83;38.48;98937.34;1639566;86;21547;-59
2021/07/25 07:00:54;;;;;;;13.38;6.83;;;;;;;31.79;38.43;98931.53;1620096;86;21095;-63
2021/07/25 07:03:22;;;;;;;14.58;7.20;;;;;;;31.74;37.85;98936.66;1636196;87;21093;-63
2021/07/25 07:05:50;;;;;;;8.68;6.30;;;;;;;31.68;38.08;98942.13;1627448;87;21040;-62
2021/07/25 07:08:18;;;;;;;12.60;7.37;;;;;;;31.39;38.18;98941.30;1621782;87;21066;-61
2021/07/25 07:10:47;;;;;;;13.30;7.22;;;;;;;31.12;39.06;98944.13;1603903;87;21035;-60
2021/07/25 07:13:16;;;;;;;17.20;8.00;;;;;;;31.14;39.49;98952.77;1615758;87;21067;-57
2021/07/25 07:15:46;;;;;;;11.53;6.42;;;;;;;31.24;39.59;98949.34;1622992;86;21104;-63
2021/07/25 07:18:14;;;;;;;13.90;6.70;;;;;;;31.28;39.10;98949.71;1630505;87;21048;-60
2021/07/25 07:20:42;;;;;;;16.25;7.28;;;;;;;31.33;39.09;98946.75;1622383;87;21119;-61
2021/07/25 07:23:15;;;;;;;13.10;7.10;;;;;;;31.38;38.94;98946.52;1625484;87;21092;-62
2021/07/25 07:25:46;;;;;;;11.95;6.78;;;;;;;31.44;39.09;98946.51;1649143;85;21059;-62
2021/07/25 07:28:15;;;;;;;11.63;6.30;;;;;;;31.59;38.95;98938.17;1623224;86;21531;-62
2021/07/25 07:30:43;;;;;;;8.65;6.15;;;;;;;31.71;38.69;98942.78;1674410;85;21059;-62
2021/07/25 07:33:18;;;;;;;10.78;6.28;;;;;;;31.84;38.40;98938.14;1646394;87;21116;-62
2021/07/25 07:35:45;;;;;;;13.48;6.25;;;;;;;31.94;37.85;98937.62;1640764;86;21055;-62
2021/07/25 07:38:14;;;;;;;10.25;6.45;;;;;;;31.93;37.13;98940.91;1636502;87;21091;-62
2021/07/25 07:40:43;;;;;;;11.73;6.10;;;;;;;31.79;37.32;98941.86;1633910;85;21150;-62
2021/07/25 07:43:11;;;;;;;10.78;6.17;;;;;;;31.76;37.28;98945.84;1622739;85;21566;-61
2021/07/25 07:45:39;;;;;;;13.05;6.72;;;;;;;31.71;37.17;98940.88;1622470;86;21553;-61
2021/07/25 07:48:07;;;;;;;11.12;6.70;;;;;;;31.61;37.61;98937.84;1627883;85;21118;-62
2021/07/25 07:50:35;;;;;;;13.20;6.60;;;;;;;31.57;36.37;98949.20;1635409;85;21054;-62
2021/07/25 07:53:03;;;;;;;9.13;6.17;;;;;;;31.47;37.07;98947.73;1624378;86;21090;-62
2021/07/25 07:55:31;;;;;;;12.75;6.92;;;;;;;31.36;36.06;98948.78;1610029;86;21079;-61
2021/07/25 07:57:59;;;;;;;14.25;7.05;;;;;;;31.07;37.01;98951.73;1620193;85;21114;-63
2021/07/25 08:00:27;;;;;;;11.10;6.70;;;;;;;30.94;37.13;98956.39;1632288;86;21142;-64
2021/07/25 08:02:55;;;;;;;11.03;6.58;;;;;;;30.88;37.71;98959.12;1623740;86;21062;-63
2021/07/25 08:05:23;;;;;;;10.55;6.20;;;;;;;30.88;37.23;98965.92;1628955;85;21057;-61
2021/07/25 08:07:51;;;;;;;11.65;7.12;;;;;;;30.87;37.44;98956.97;1621647;85;21070;-63
2021/07/25 08:10:19;;;;;;;10.35;6.20;;;;;;;30.91;37.82;98960.61;1626855;87;21050;-61
2021/07/25 08:12:48;;;;;;;11.45;6.40;;;;;;;30.93;37.15;98963.77;1635640;85;21145;-62
2021/07/25 08:15:17;;;;;;;11.28;6.60;;;;;;;30.88;37.02;98963.20;1643221;85;21121;-62
2021/07/25 08:17:45;;;;;;;13.18;6.62;;;;;;;30.78;36.38;98955.48;1625245;86;21123;-63
2021/07/25 08:20:14;;;;;;;11.68;6.62;;;;;;;30.45;36.30;98956.30;1620856;86;21616;-62
2021/07/25 08:22:42;;;;;;;10.18;6.30;;;;;;;30.21;37.40;98963.83;1619420;86;21090;-60
2021/07/25 08:25:11;;;;;;;10.63;6.20;;;;;;;30.25;37.17;98968.05;1616812;85;21082;-61
2021/07/25 08:27:39;;;;;;;9.63;6.17;;;;;;;30.36;37.25;98965.92;1619881;86;21108;-62
2021/07/25 08:30:08;;;;;;;10.48;6.00;;;;;;;30.50;36.03;98962.89;1628181;85;21119;-59
2021/07/25 08:32:36;;;;;;;11.20;6.47;;;;;;;30.67;36.38;98965.97;1646834;85;21129;-63
2021/07/25 08:35:06;;;;;;;11.05;6.40;;;;;;;30.89;35.23;98966.94;1645574;85;21023;-61
2021/07/25 08:37:34;;;;;;;10.48;6.70;;;;;;;31.02;34.72;98969.66;1644948;85;21076;-60
2021/07/25 08:40:03;;;;;;;10.85;6.30;;;;;;;31.08;34.58;98961.48;1638574;85;21040;-59
2021/07/25 08:42:34;;;;;;;10.70;6.45;;;;;;;31.10;34.56;98964.68;1623291;86;21527;-60
2021/07/25 08:45:02;;;;;;;11.78;7.05;;;;;;;31.03;34.59;98965.82;1644993;86;21066;-62
2021/07/25 08:47:36;;;;;;;12.65;7.10;;;;;;;31.06;35.00;98961.05;1612402;86;21086;-62
2021/07/25 08:50:10;;;;;;;10.78;6.42;;;;;;;31.05;35.14;98964.91;1620898;85;21128;-62
2021/07/25 08:52:44;;;;;;;10.55;6.60;;;;;;;31.03;35.15;98968.55;1625535;86;21077;-59
2021/07/25 08:55:16;;;;;;;12.00;6.70;;;;;;;31.02;35.67;98962.85;1616847;86;21084;-63
2021/07/25 08:57:48;;;;;;;11.73;6.97;;;;;;;31.09;34.89;98959.02;1613997;86;21591;-61
2021/07/25 09:00:18;;;;;;;12.25;6.85;;;;;;;31.06;34.58;98959.68;1617923;86;21113;-61
2021/07/25 09:02:48;;;;;;;14.95;6.78;;;;;;;30.99;34.71;98960.83;1614270;85;21061;-60
2021/07/25 09:05:17;;;;;;;10.38;7.30;;;;;;;30.86;33.95;98962.19;1616904;86;21698;-64
2021/07/25 09:07:45;;;;;;;12.95;6.95;;;;;;;30.73;34.34;98970.09;1633245;86;21064;-62
2021/07/25 09:10:16;;;;;;;10.72;6.72;;;;;;;30.67;34.15;98966.77;1647453;86;21059;-60
2021/07/25 09:12:44;;;;;;;16.85;7.03;;;;;;;30.67;33.99;98965.97;1636489;85;21123;-61
2021/07/25 09:15:18;;;;;;;14.25;6.70;;;;;;;30.76;33.98;98962.63;1634094;85;21083;-63
2021/07/25 09:17:48;;;;;;;14.50;7.15;;;;;;;30.76;33.69;98959.91;1603055;86;21079;-63
2021/07/25 09:20:23;;;;;;;13.60;6.70;;;;;;;30.53;33.77;98961.44;1620743;86;21108;-62
2021/07/25 09:22:56;;;;;;;10.48;6.83;;;;;;;30.46;34.61;98957.13;1638306;86;21028;-60
2021/07/25 09:25:31;;;;;;;12.20;7.05;;;;;;;30.51;34.15;98950.90;1689036;84;21124;-61
2021/07/25 09:28:03;;;;;;;10.78;6.90;;;;;;;30.46;33.62;98952.47;1691011;84;21039;-62
2021/07/25 09:30:33;;;;;;;14.23;7.12;;;;;;;30.37;34.50;98949.05;1673333;83;21745;-62
2021/07/25 09:33:01;;;;;;;11.25;6.65;;;;;;;30.30;34.51;98951.52;1672011;83;21049;-63
2021/07/25 09:35:37;;;;;;;12.03;7.10;;;;;;;30.20;34.48;98950.58;1622442;86;21039;-63
2021/07/25 09:38:10;;;;;;;10.43;6.78;;;;;;;30.06;33.93;98954.37;1690060;84;21114;-62
2021/07/25 09:40:40;;;;;;;13.32;7.55;;;;;;;29.81;34.17;98950.73;1677779;83;21682;-64
2021/07/25 09:43:21;;;;;;;13.60;7.20;;;;;;;29.77;34.40;98951.76;1584581;87;21122;-62
2021/07/25 09:46:01;;;;;;;11.30;6.95;;;;;;;29.76;35.20;98950.14;1626529;86;21620;-63
2021/07/25 09:48:28;;;;;;;11.53;6.97;;;;;;;29.76;34.08;98947.42;1598768;87;21095;-61
2021/07/25 09:51:05;;;;;;;12.78;6.87;;;;;;;29.59;35.27;98954.61;1616167;86;21039;-63
2021/07/25 09:53:44;;;;;;;11.30;7.28;;;;;;;29.60;34.91;98948.05;1616050;87;21092;-63
2021/07/25 09:56:22;;;;;;;10.28;7.12;;;;;;;29.69;35.15;98949.33;1622944;85;21156;-61
2021/07/25 09:58:50;;;;;;;10.25;6.65;;;;;;;29.72;34.94;98949.23;1644997;85;21026;-63
2021/07/25 10:01:41;;;;;;;13.95;7.22;;;;;;;29.77;35.05;98951.19;1645834;85;21049;-61
2021/07/25 10:04:21;;;;;;;12.90;7.22;;;;;;;29.83;34.15;98951.78;1632889;86;21562;-60
2021/07/25 10:06:54;;;;;;;11.25;6.60;;;;;;;29.79;33.89;98948.13;1641135;85;21213;-61
2021/07/25 10:09:25;;;;;;;9.65;6.58;;;;;;;29.72;34.00;98951.39;1621297;87;21016;-59
2021/07/25 10:12:11;;;;;;;12.45;7.22;;;;;;;29.65;34.37;98953.03;1611626;87;21059;-56
2021/07/25 10:14:30;;;;;;;9.60;7.03;;;;;;;29.61;33.69;98953.70;1625845;87;21090;-60
2021/07/25 10:17:01;;;;;;;11.12;6.92;;;;;;;29.55;33.95;98947.45;1618163;87;21516;-62
2021/07/25 10:19:39;;;;;;;11.55;7.00;;;;;;;29.47;34.15;98950.98;1620796;86;21516;-62
2021/07/25 10:22:12;;;;;;;10.58;7.25;;;;;;;29.47;34.21;98950.41;1633737;85;21027;-62
2021/07/25 10:24:43;;;;;;;12.70;7.65;;;;;;;29.54;34.26;98950.73;1647387;85;21078;-60
2021/07/25 10:27:17;;;;;;;10.53;7.12;;;;;;;29.59;33.81;98953.25;1647615;85;21177;-63
2021/07/25 10:29:45;;;;;;;11.10;7.00;;;;;;;29.60;33.13;98945.90;1620096;87;21054;-61
2021/07/25 10:32:13;;;;;;;13.38;7.62;;;;;;;29.70;32.28;98946.05;1625874;87;21118;-66
2021/07/25 10:34:42;;;;;;;11.85;7.12;;;;;;;29.78;32.07;98945.19;1624804;85;21156;-63
2021/07/25 10:37:13;;;;;;;11.12;6.90;;;;;;;29.82;32.18;98953.71;1625767;85;21048;-62
2021/07/25 10:39:50;;;;;;;13.10;7.50;;;;;;;29.86;31.94;98954.61;1625155;85;21086;-56
2021/07/25 10:42:23;;;;;;;9.58;6.80;;;;;;;29.91;31.96;98955.55;1625277;87;21102;-61
2021/07/25 10:44:51;;;;;;;11.75;6.85;;;;;;;29.96;32.43;98952.62;1623505;87;21123;-62
2021/07/25 10:47:32;;;;;;;14.20;6.80;;;;;;;30.01;33.76;98957.86;1630197;86;21478;-61
2021/07/25 10:50:10;;;;;;;10.32;7.05;;;;;;;30.02;34.24;98954.00;1628801;86;21131;-60
2021/07/25 10:52:55;;;;;;;13.53;7.10;;;;;;;29.98;34.81;98950.36;1632256;87;21087;-63
2021/07/25 10:55:41;;;;;;;12.10;6.67;;;;;;;30.01;34.90;98951.86;1639451;85;21119;-62
2021/07/25 10:58:18;;;;;;;9.85;7.05;;;;;;;30.02;35.21;98947.21;1624531;85;21126;-56
2021/07/25 11:00:54;;;;;;;12.20;6.92;;;;;;;30.03;35.06;98945.52;1622305;86;21080;-58
2021/07/25 11:03:36;;;;;;;10.98;6.83;;;;;;;30.08;35.06;98948.02;1616556;86;21559;-56
2021/07/25 11:06:13;;;;;;;10.72;7.40;;;;;;;30.14;34.14;98951.36;1622028;87;21588;-57
2021/07/25 11:08:45;;;;;;;13.03;7.03;;;;;;;30.16;34.62;98946.37;1630633;85;21574;-60
2021/07/25 11:11:36;;;;;;;14.78;6.83;;;;;;;30.17;34.06;98945.83;1623212;86;21062;-62
2021/07/25 11:14:06;;;;;;;13.20;6.80;;;;;;;30.03;33.14;98947.44;1621968;86;21595;-62
2021/07/25 11:16:42;;;;;;;12.53;7.10;;;;;;;29.83;34.12;98940.92;1617568;86;21550;-63
2021/07/25 11:19:15;;;;;;;14.28;7.47;;;;;;;29.81;34.38;98943.16;1619348;87;21059;-63
2021/07/25 11:21:45;;;;;;;12.93;7.25;;;;;;;29.77;34.86;98943.05;1617450;87;21611;-61
2021/07/25 11:24:26;;;;;;;12.15;6.67;;;;;;;29.78;34.99;98934.33;1623098;85;21081;-62
2021/07/25 11:26:55;;;;;;;11.28;7.05;;;;;;;29.73;34.64;98931.81;1635954;85;21138;-62
2021/07/25 11:29:42;;;;;;;13.68;6.65;;;;;;;29.72;35.17;98939.73;1646239;85;21067;-61
2021/07/25 11:32:36;;;;;;;14.03;7.10;;;;;;;29.73;34.61;98939.39;1621239;87;21094;-62
2021/07/25 11:35:05;;;;;;;12.10;7.15;;;;;;;29.73;33.22;98938.03;1621775;85;21565;-60
2021/07/25 11:37:38;;;;;;;12.53;7.37;;;;;;;29.56;33.21;98932.17;1644614;86;21026;-61